createdAt,value
2019-01-06T00:01:28.899Z,2.90
2019-01-06T00:04:00.355Z,2.67
2019-01-06T00:06:29.964Z,2.75
2019-01-06T00:08:59.525Z,3.47
2019-01-06T00:11:29.113Z,2.80
2019-01-06T00:13:57.955Z,3.93
2019-01-06T00:16:29.565Z,2.70
2019-01-06T00:19:03.368Z,3.67
2019-01-06T00:21:33.206Z,4.77
2019-01-06T00:24:07.623Z,4.53
2019-01-06T00:26:38.101Z,4.17
2019-01-06T00:29:08.431Z,3.87
2019-01-06T00:31:37.282Z,3.40
2019-01-06T00:34:06.145Z,2.83
2019-01-06T00:36:41.193Z,2.80
2019-01-06T00:39:12.837Z,2.87
2019-01-06T00:41:41.681Z,2.90
2019-01-06T00:44:11.371Z,3.08
2019-01-06T00:46:45.711Z,2.93
2019-01-06T00:49:20.047Z,2.80
2019-01-06T00:51:50.511Z,3.87
2019-01-06T00:54:19.344Z,3.20
2019-01-06T00:56:53.131Z,2.57
2019-01-06T00:59:22.887Z,2.57
2019-01-06T01:01:53.504Z,4.03
2019-01-06T01:04:27.963Z,3.10
2019-01-06T01:07:01.633Z,2.67
2019-01-06T01:09:36.052Z,2.97
2019-01-06T01:12:10.414Z,3.33
2019-01-06T01:14:39.239Z,3.27
2019-01-06T01:17:08.081Z,2.70
2019-01-06T01:19:37.779Z,2.90
2019-01-06T01:22:13.350Z,2.80
2019-01-06T01:24:46.911Z,4.87
2019-01-06T01:27:22.311Z,2.92
2019-01-06T01:29:54.119Z,3.20
2019-01-06T01:32:28.391Z,4.73
2019-01-06T01:35:02.811Z,3.25
2019-01-06T01:37:33.387Z,3.40
2019-01-06T01:40:04.250Z,3.77
2019-01-06T01:42:38.681Z,2.70
2019-01-06T01:45:09.359Z,4.17
2019-01-06T01:47:38.221Z,2.80
2019-01-06T01:50:08.909Z,3.10
2019-01-06T01:52:43.213Z,2.80
2019-01-06T01:55:17.616Z,3.00
2019-01-06T01:57:46.463Z,2.80
2019-01-06T02:00:20.200Z,2.53
2019-01-06T02:02:50.913Z,2.57
2019-01-06T02:05:20.651Z,4.37
2019-01-06T02:07:52.230Z,2.67
2019-01-06T02:10:25.619Z,2.70
2019-01-06T02:13:00.077Z,3.15
2019-01-06T02:15:29.023Z,2.75
2019-01-06T02:17:58.724Z,2.70
2019-01-06T02:20:30.337Z,4.20
2019-01-06T02:23:05.377Z,2.30
2019-01-06T02:25:34.205Z,2.40
2019-01-06T02:28:08.633Z,2.23
2019-01-06T02:30:40.177Z,2.40
2019-01-06T02:33:14.484Z,3.10
2019-01-06T02:35:46.152Z,2.90
2019-01-06T02:38:20.011Z,2.70
2019-01-06T02:40:49.767Z,2.40
2019-01-06T02:43:18.683Z,2.73
2019-01-06T02:45:49.238Z,2.50
2019-01-06T02:48:23.588Z,2.90
2019-01-06T02:50:56.186Z,2.93
2019-01-06T02:53:25.983Z,2.97
2019-01-06T02:56:01.148Z,2.40
2019-01-06T02:58:35.746Z,2.20
2019-01-06T03:01:06.299Z,2.30
2019-01-06T03:03:35.888Z,2.37
2019-01-06T03:06:06.454Z,2.30
2019-01-06T03:08:40.318Z,2.40
2019-01-06T03:11:14.749Z,2.80
2019-01-06T03:13:44.458Z,2.50
2019-01-06T03:16:16.140Z,3.10
2019-01-06T03:18:44.975Z,2.80
2019-01-06T03:21:19.759Z,2.90
2019-01-06T03:23:49.324Z,3.03
2019-01-06T03:26:23.070Z,3.00
2019-01-06T03:28:51.883Z,2.93
2019-01-06T03:31:26.234Z,3.17
2019-01-06T03:33:56.873Z,2.50
2019-01-06T03:36:31.653Z,2.77
2019-01-06T03:39:04.321Z,3.60
2019-01-06T03:41:39.726Z,2.40
2019-01-06T03:44:08.555Z,2.40
2019-01-06T03:46:40.365Z,2.27
2019-01-06T03:49:13.048Z,2.17
2019-01-06T03:51:47.667Z,2.17
2019-01-06T03:54:18.238Z,2.67
2019-01-06T03:56:49.031Z,2.60
2019-01-06T03:59:17.832Z,2.57
2019-01-06T04:01:47.419Z,2.87
2019-01-06T04:04:19.191Z,2.87
2019-01-06T04:06:53.495Z,2.80
2019-01-06T04:09:25.163Z,3.00
2019-01-06T04:11:59.477Z,2.80
2019-01-06T04:14:30.278Z,3.20
2019-01-06T04:16:59.833Z,3.27
2019-01-06T04:19:34.995Z,3.47
2019-01-06T04:22:09.465Z,3.20
2019-01-06T04:24:44.088Z,3.50
2019-01-06T04:27:13.705Z,3.20
2019-01-06T04:29:42.611Z,2.80
2019-01-06T04:32:12.159Z,2.73
2019-01-06T04:34:45.030Z,3.20
2019-01-06T04:37:15.654Z,3.15
2019-01-06T04:39:45.403Z,2.70
2019-01-06T04:42:16.125Z,2.77
2019-01-06T04:44:45.734Z,2.60
2019-01-06T04:47:19.677Z,2.80
2019-01-06T04:49:53.967Z,3.37
2019-01-06T04:52:28.315Z,2.70
2019-01-06T04:55:02.627Z,3.37
2019-01-06T04:57:33.061Z,3.10
2019-01-06T05:00:01.952Z,3.12
2019-01-06T05:02:30.757Z,2.37
2019-01-06T05:05:04.350Z,2.90
2019-01-06T05:07:35.996Z,2.70
2019-01-06T05:10:10.361Z,2.60
2019-01-06T05:12:44.799Z,2.70
2019-01-06T05:15:19.557Z,2.77
2019-01-06T05:17:52.138Z,2.37
2019-01-06T05:20:21.981Z,2.40
2019-01-06T05:22:51.657Z,2.23
2019-01-06T05:25:21.357Z,2.90
2019-01-06T05:27:50.954Z,2.70
2019-01-06T05:30:22.675Z,2.50
2019-01-06T05:32:57.283Z,3.30
2019-01-06T05:35:31.626Z,2.73
2019-01-06T05:38:00.486Z,2.60
2019-01-06T05:40:30.233Z,3.08
2019-01-06T05:43:03.013Z,2.73
2019-01-06T05:45:31.865Z,2.70
2019-01-06T05:48:01.563Z,3.10
2019-01-06T05:50:31.275Z,2.40
2019-01-06T05:53:05.629Z,2.87
2019-01-06T05:55:38.445Z,2.43
2019-01-06T05:58:08.014Z,2.77
2019-01-06T06:00:36.857Z,2.70
2019-01-06T06:03:08.203Z,2.77
2019-01-06T06:05:36.995Z,4.50
2019-01-06T06:08:11.579Z,2.93
2019-01-06T06:10:45.242Z,2.93
2019-01-06T06:13:19.003Z,2.80
2019-01-06T06:15:53.885Z,2.70
2019-01-06T06:18:26.211Z,3.00
2019-01-06T06:21:00.511Z,2.70
2019-01-06T06:23:34.335Z,3.17
2019-01-06T06:26:07.982Z,3.10
2019-01-06T06:28:38.356Z,3.00
2019-01-06T06:31:12.825Z,2.90
2019-01-06T06:33:45.419Z,3.00
2019-01-06T06:36:19.936Z,2.80
2019-01-06T06:38:53.565Z,2.97
2019-01-06T06:41:24.210Z,3.20
2019-01-06T06:43:53.098Z,2.80
2019-01-06T06:46:24.721Z,2.83
2019-01-06T06:48:53.566Z,2.77
2019-01-06T06:51:22.467Z,2.30
2019-01-06T06:53:56.060Z,2.80
2019-01-06T06:56:31.312Z,2.40
2019-01-06T06:59:06.226Z,2.60
2019-01-06T07:01:42.045Z,2.30
2019-01-06T07:04:11.257Z,2.80
2019-01-06T07:06:45.700Z,2.57
2019-01-06T07:09:14.591Z,2.27
2019-01-06T07:11:47.342Z,2.40
2019-01-06T07:14:19.227Z,2.40
2019-01-06T07:17:09.457Z,2.67
2019-01-06T07:19:38.303Z,2.47
2019-01-06T07:22:07.135Z,2.90
2019-01-06T07:24:36.878Z,2.60
2019-01-06T07:27:11.193Z,2.33
2019-01-06T07:29:40.103Z,2.40
2019-01-06T07:32:10.667Z,1.97
2019-01-06T07:34:41.421Z,2.90
2019-01-06T07:37:11.157Z,2.20
2019-01-06T07:39:41.849Z,3.70
2019-01-06T07:42:11.440Z,2.57
2019-01-06T07:44:45.916Z,2.53
2019-01-06T07:47:20.214Z,2.70
2019-01-06T07:49:50.789Z,2.77
2019-01-06T07:52:25.505Z,3.97
2019-01-06T07:54:56.194Z,2.67
2019-01-06T07:57:25.778Z,2.63
2019-01-06T07:59:54.618Z,2.77
2019-01-06T08:02:23.448Z,3.03
2019-01-06T08:04:54.253Z,2.83
2019-01-06T08:07:24.846Z,3.30
2019-01-06T08:09:56.694Z,3.53
2019-01-06T08:12:26.230Z,3.30
2019-01-06T08:14:55.130Z,3.70
2019-01-06T08:17:29.483Z,3.37
2019-01-06T08:20:03.793Z,2.83
2019-01-06T08:22:36.569Z,3.40
2019-01-06T08:25:11.781Z,3.33
2019-01-06T08:27:41.497Z,3.22
2019-01-06T08:30:10.398Z,3.33
2019-01-06T08:32:40.145Z,2.70
2019-01-06T08:35:14.432Z,3.00
2019-01-06T08:37:48.723Z,2.30
2019-01-06T08:40:18.346Z,2.72
2019-01-06T08:42:52.051Z,2.60
2019-01-06T08:45:27.346Z,2.70
2019-01-06T08:47:56.989Z,2.87
2019-01-06T08:50:27.657Z,4.73
2019-01-06T08:55:36.965Z,6.17
2019-01-06T08:58:05.866Z,5.47
2019-01-06T09:00:40.157Z,5.13
2019-01-06T09:03:10.725Z,5.22
2019-01-06T09:05:44.456Z,4.20
2019-01-06T09:08:14.220Z,3.73
2019-01-06T09:10:48.551Z,2.80
2019-01-06T09:13:23.584Z,2.57
2019-01-06T09:15:57.914Z,1.90
2019-01-06T09:18:27.492Z,1.87
2019-01-06T09:21:02.294Z,1.90
2019-01-06T09:23:32.953Z,2.03
2019-01-06T09:26:06.702Z,1.70
2019-01-06T09:28:36.396Z,1.77
2019-01-06T09:31:08.915Z,2.23
2019-01-06T09:33:43.351Z,2.17
2019-01-06T09:36:12.187Z,1.60
2019-01-06T09:38:43.536Z,1.63
2019-01-06T09:41:18.185Z,1.60
2019-01-06T09:43:52.687Z,1.77
2019-01-06T09:46:24.368Z,1.40
2019-01-06T09:48:55.055Z,1.90
2019-01-06T09:51:27.827Z,1.50
2019-01-06T09:53:58.543Z,2.33
2019-01-06T09:56:29.275Z,1.80
2019-01-06T09:59:04.041Z,1.40
2019-01-06T10:01:39.558Z,2.20
2019-01-06T10:04:08.464Z,2.53
2019-01-06T10:06:43.544Z,1.90
2019-01-06T10:09:14.141Z,2.17
2019-01-06T10:11:45.549Z,3.43
2019-01-06T10:14:19.279Z,3.80
2019-01-06T10:16:49.889Z,4.53
2019-01-06T10:19:18.793Z,3.10
2019-01-06T10:21:53.259Z,2.97
2019-01-06T10:24:22.107Z,3.67
2019-01-06T10:26:56.507Z,5.03
2019-01-06T10:29:25.409Z,3.90
2019-01-06T10:31:54.977Z,5.83
2019-01-06T10:34:27.590Z,4.60
2019-01-06T10:37:05.493Z,6.77
2019-01-06T10:39:38.878Z,3.10
2019-01-06T10:42:07.811Z,2.28
2019-01-06T10:44:40.566Z,3.40
2019-01-06T10:47:13.153Z,2.40
2019-01-06T10:49:44.936Z,3.80
2019-01-06T10:52:13.747Z,4.03
2019-01-06T10:54:42.585Z,2.90
2019-01-06T10:57:12.175Z,2.67
2019-01-06T10:59:42.813Z,2.73
2019-01-06T11:02:15.149Z,3.77
2019-01-06T11:04:43.965Z,2.37
2019-01-06T11:07:12.885Z,2.00
2019-01-06T11:09:43.496Z,3.00
2019-01-06T11:12:17.818Z,2.77
2019-01-06T11:14:49.536Z,2.33
2019-01-06T11:17:18.296Z,1.90
2019-01-06T11:19:48.926Z,1.60
2019-01-06T11:22:17.778Z,1.80
2019-01-06T11:24:46.682Z,1.97
2019-01-06T11:27:20.227Z,2.40
2019-01-06T11:29:49.055Z,2.17
2019-01-06T11:32:19.329Z,1.70
2019-01-06T11:34:53.751Z,1.53
2019-01-06T11:37:28.102Z,2.60
2019-01-06T11:40:00.726Z,1.73
2019-01-06T11:42:35.219Z,2.70
2019-01-06T11:45:05.061Z,2.00
2019-01-06T11:47:35.792Z,1.43
2019-01-06T11:50:10.135Z,2.53
2019-01-06T11:52:41.868Z,1.87
2019-01-06T11:55:10.711Z,1.50
2019-01-06T11:57:39.567Z,2.17
2019-01-06T12:00:09.149Z,2.87
2019-01-06T12:02:44.394Z,2.27
2019-01-06T12:05:15.113Z,1.77
2019-01-06T12:07:43.915Z,1.60
2019-01-06T12:10:18.353Z,2.37
2019-01-06T12:12:50.611Z,1.30
2019-01-06T12:15:18.917Z,1.53
2019-01-06T12:17:53.290Z,1.80
2019-01-06T12:20:24.810Z,1.77
2019-01-06T12:22:57.521Z,2.33
2019-01-06T12:25:26.374Z,1.80
2019-01-06T12:27:57.785Z,1.50
2019-01-06T12:30:32.205Z,1.67
2019-01-06T12:33:04.938Z,1.40
2019-01-06T12:35:34.773Z,2.10
2019-01-06T12:38:08.461Z,2.17
2019-01-06T12:40:39.087Z,1.80
2019-01-06T12:43:07.940Z,1.60
2019-01-06T12:45:36.884Z,1.83
2019-01-06T12:48:10.538Z,2.10
2019-01-06T12:50:43.345Z,1.57
2019-01-06T12:53:17.742Z,1.63
2019-01-06T12:55:49.513Z,1.40
2019-01-06T12:58:19.103Z,1.43
2019-01-06T13:00:53.425Z,1.80
2019-01-06T13:03:22.359Z,1.63
2019-01-06T13:05:53.687Z,2.47
2019-01-06T13:08:28.142Z,2.87
2019-01-06T13:11:02.430Z,1.50
2019-01-06T13:13:36.812Z,2.00
2019-01-06T13:16:06.803Z,2.50
2019-01-06T13:18:41.195Z,1.87
2019-01-06T13:21:13.904Z,2.40
2019-01-06T13:23:47.663Z,2.10
2019-01-06T13:26:16.509Z,3.43
2019-01-06T13:28:45.347Z,2.17
2019-01-06T13:31:19.803Z,1.90
2019-01-06T13:33:52.588Z,3.03
2019-01-06T13:36:21.535Z,2.70
2019-01-06T13:38:52.455Z,3.10
2019-01-06T13:41:26.903Z,3.43
2019-01-06T13:43:59.500Z,3.40
2019-01-06T13:46:33.816Z,2.13
2019-01-06T13:49:04.529Z,2.03
2019-01-06T13:51:39.660Z,1.87
2019-01-06T13:54:12.367Z,2.40
2019-01-06T13:56:47.444Z,7.22
2019-01-06T13:59:16.371Z,6.30
2019-01-06T14:01:51.612Z,2.83
2019-01-06T14:04:21.204Z,2.40
2019-01-06T14:06:55.530Z,2.50
2019-01-06T14:09:30.679Z,2.80
2019-01-06T14:11:59.576Z,2.53
2019-01-06T14:14:28.434Z,2.53
2019-01-06T14:16:58.281Z,2.50
2019-01-06T14:19:28.974Z,3.47
2019-01-06T14:21:58.559Z,3.10
2019-01-06T14:24:32.889Z,2.77
2019-01-06T14:27:02.531Z,3.73
2019-01-06T14:29:31.353Z,3.90
2019-01-06T14:32:06.089Z,5.60
2019-01-06T14:34:36.803Z,3.80
2019-01-06T14:37:05.619Z,4.30
2019-01-06T14:39:34.482Z,5.47
2019-01-06T14:42:05.286Z,6.95
2019-01-06T14:44:35.917Z,11.50
2019-01-06T14:47:11.088Z,11.55
2019-01-06T14:49:41.803Z,10.77
2019-01-06T14:52:13.608Z,10.50
2019-01-06T14:54:44.298Z,12.30
2019-01-06T14:57:16.852Z,6.67
2019-01-06T14:59:51.902Z,6.60
2019-01-06T15:02:26.184Z,7.07
2019-01-06T15:04:55.056Z,8.93
2019-01-06T15:07:25.827Z,8.20
2019-01-06T15:10:01.051Z,8.70
2019-01-06T15:12:32.610Z,7.20
2019-01-06T15:15:05.196Z,6.30
2019-01-06T15:17:34.917Z,6.23
2019-01-06T15:20:07.615Z,6.07
2019-01-06T15:22:42.817Z,6.53
2019-01-06T15:25:13.323Z,6.47
2019-01-06T15:27:47.147Z,6.43
2019-01-06T15:30:21.474Z,4.90
2019-01-06T15:32:51.162Z,4.80
2019-01-06T15:35:23.591Z,4.57
2019-01-06T15:37:53.182Z,5.57
2019-01-06T15:40:27.465Z,6.03
2019-01-06T15:42:57.042Z,7.87
2019-01-06T15:45:25.892Z,6.10
2019-01-06T15:47:54.765Z,5.40
2019-01-06T15:50:25.372Z,5.60
2019-01-06T15:52:54.204Z,5.20
2019-01-06T15:55:24.964Z,6.00
2019-01-06T15:57:59.343Z,5.30
2019-01-06T16:00:29.949Z,6.00
2019-01-06T16:02:58.750Z,6.53
2019-01-06T16:05:33.352Z,6.23
2019-01-06T16:08:03.596Z,6.53
2019-01-06T16:10:37.905Z,6.17
2019-01-06T16:13:07.487Z,6.17
2019-01-06T16:15:41.871Z,5.40
2019-01-06T16:18:16.363Z,5.53
2019-01-06T16:20:48.007Z,6.93
2019-01-06T16:23:17.805Z,5.40
2019-01-06T16:25:46.607Z,6.20
2019-01-06T16:28:16.215Z,6.53
2019-01-06T16:30:49.803Z,6.47
2019-01-06T16:33:18.654Z,8.00
2019-01-06T16:35:53.578Z,8.20
2019-01-06T16:38:26.685Z,7.90
2019-01-06T16:40:54.681Z,10.07
2019-01-06T16:43:30.639Z,8.95
2019-01-06T16:45:58.072Z,10.80
2019-01-06T16:48:27.945Z,10.40
2019-01-06T16:50:56.765Z,10.57
2019-01-06T16:53:25.618Z,11.67
2019-01-06T16:55:54.545Z,10.00
2019-01-06T16:58:24.397Z,9.57
2019-01-06T17:00:53.988Z,9.90
2019-01-06T17:03:27.707Z,11.38
2019-01-06T17:05:57.311Z,11.77
2019-01-06T17:08:30.090Z,13.70
2019-01-06T17:11:00.356Z,15.13
2019-01-06T17:13:34.765Z,19.42
2019-01-06T17:16:04.467Z,15.33
2019-01-06T17:18:35.926Z,14.87
2019-01-06T17:21:04.781Z,13.27
2019-01-06T17:23:35.559Z,14.90
2019-01-06T17:26:04.517Z,15.77
2019-01-06T17:28:38.929Z,15.70
2019-01-06T17:31:10.525Z,14.03
2019-01-06T17:33:40.178Z,13.67
2019-01-06T17:36:09.907Z,12.03
2019-01-06T17:38:42.633Z,10.60
2019-01-06T17:41:11.472Z,10.33
2019-01-06T17:43:41.094Z,10.80
2019-01-06T17:46:16.343Z,11.40
2019-01-06T17:48:49.157Z,13.35
2019-01-06T17:51:20.747Z,12.40
2019-01-06T17:53:53.556Z,12.20
2019-01-06T17:56:25.298Z,12.70
2019-01-06T17:59:00.622Z,11.97
2019-01-06T18:01:30.048Z,13.15
2019-01-06T18:04:05.236Z,11.50
2019-01-06T18:06:34.167Z,10.57
2019-01-06T18:09:09.338Z,12.03
2019-01-06T18:11:43.022Z,16.13
2019-01-06T18:14:12.676Z,19.67
2019-01-06T18:16:42.311Z,20.33
2019-01-06T18:19:16.775Z,17.77
2019-01-06T18:21:45.609Z,20.05
2019-01-06T18:24:20.512Z,18.20
2019-01-06T18:26:55.192Z,17.50
2019-01-06T18:29:29.509Z,19.03
2019-01-06T18:32:03.794Z,22.23
2019-01-06T18:34:36.529Z,22.53
2019-01-06T18:37:10.302Z,20.73
2019-01-06T18:39:41.072Z,21.10
2019-01-06T18:42:09.946Z,20.23
2019-01-06T18:44:44.287Z,18.93
2019-01-06T18:47:18.898Z,18.57
2019-01-06T18:49:50.663Z,20.07
2019-01-06T18:52:20.232Z,23.00
2019-01-06T18:54:49.123Z,23.52
2019-01-06T18:57:23.442Z,23.15
2019-01-06T18:59:56.998Z,23.65
2019-01-06T19:02:26.636Z,24.10
2019-01-06T19:04:55.503Z,23.17
2019-01-06T19:07:26.201Z,21.37
2019-01-06T19:10:00.826Z,23.37
2019-01-06T19:12:31.200Z,22.17
2019-01-06T19:15:00.778Z,20.77
2019-01-06T19:17:30.432Z,23.47
2019-01-06T19:20:05.446Z,18.60
2019-01-06T19:22:39.713Z,15.97
2019-01-06T19:25:08.585Z,13.97
2019-01-06T19:27:42.992Z,13.30
2019-01-06T19:30:17.396Z,12.52
2019-01-06T19:32:49.234Z,12.68
2019-01-06T19:35:21.012Z,11.67
2019-01-06T19:37:52.734Z,11.87
2019-01-06T19:40:27.060Z,11.83
2019-01-06T19:42:55.912Z,13.07
2019-01-06T19:45:25.497Z,12.60
2019-01-06T19:47:55.319Z,12.60
2019-01-06T19:50:29.795Z,13.57
2019-01-06T19:53:03.521Z,10.23
2019-01-06T19:55:32.963Z,12.50
2019-01-06T19:58:01.881Z,13.13
2019-01-06T20:00:30.822Z,14.37
2019-01-06T20:03:03.576Z,15.37
2019-01-06T20:05:32.489Z,15.20
2019-01-06T20:08:05.998Z,15.23
2019-01-06T20:10:35.703Z,17.20
2019-01-06T20:13:09.718Z,17.85
2019-01-06T20:15:42.084Z,19.17
2019-01-06T20:18:14.722Z,16.47
2019-01-06T20:20:49.423Z,17.57
2019-01-06T20:23:20.187Z,18.90
2019-01-06T20:25:49.042Z,19.13
2019-01-06T20:28:18.740Z,20.67
2019-01-06T20:30:51.368Z,23.13
2019-01-06T20:33:25.707Z,23.23
2019-01-06T20:35:59.394Z,20.97
2019-01-06T20:38:32.155Z,21.65
2019-01-06T20:41:06.911Z,20.27
2019-01-06T20:43:35.761Z,18.63
2019-01-06T20:46:04.703Z,18.93
2019-01-06T20:48:35.437Z,19.43
2019-01-06T20:51:04.292Z,19.97
2019-01-06T20:53:36.930Z,20.27
2019-01-06T20:56:05.770Z,21.27
2019-01-06T20:58:36.406Z,22.47
2019-01-06T21:01:08.075Z,21.47
2019-01-06T21:03:43.096Z,20.73
2019-01-06T21:06:15.802Z,18.50
2019-01-06T21:08:49.408Z,16.27
2019-01-06T21:11:19.027Z,16.07
2019-01-06T21:13:54.191Z,16.58
2019-01-06T21:16:24.879Z,19.10
2019-01-06T21:18:55.458Z,13.30
2019-01-06T21:21:29.311Z,13.10
2019-01-06T21:23:58.154Z,12.63
2019-01-06T21:26:29.728Z,14.07
2019-01-06T21:28:58.621Z,12.00
2019-01-06T21:31:27.446Z,10.57
2019-01-06T21:33:57.038Z,11.57
2019-01-06T21:36:27.654Z,10.23
2019-01-06T21:39:00.443Z,12.87
2019-01-06T21:41:32.686Z,12.40
2019-01-06T21:44:04.360Z,10.77
2019-01-06T21:46:38.023Z,11.20
2019-01-06T21:49:06.965Z,12.75
2019-01-06T21:51:36.548Z,11.10
2019-01-06T21:54:05.459Z,11.43
2019-01-06T21:56:36.201Z,12.40
2019-01-06T21:59:05.795Z,13.60
2019-01-06T22:01:40.238Z,13.95
2019-01-06T22:04:11.713Z,12.07
2019-01-06T22:06:42.357Z,12.80
2019-01-06T22:09:11.965Z,12.40
2019-01-06T22:11:41.523Z,11.73
2019-01-06T22:14:12.108Z,12.03
2019-01-06T22:16:43.829Z,13.18
2019-01-06T22:19:12.636Z,12.10
2019-01-06T22:21:41.588Z,12.83
2019-01-06T22:24:10.494Z,11.77
2019-01-06T22:26:44.904Z,13.07
2019-01-06T22:29:19.981Z,12.63
2019-01-06T22:31:50.782Z,12.60
2019-01-06T22:34:22.410Z,11.70
2019-01-06T22:36:56.866Z,11.93
2019-01-06T22:39:26.582Z,11.60
2019-01-06T22:41:56.101Z,10.17
2019-01-06T22:44:26.739Z,10.50
2019-01-06T22:46:59.464Z,11.07
2019-01-06T22:49:28.389Z,11.30
2019-01-06T22:51:58.842Z,10.37
2019-01-06T22:54:32.482Z,12.80
2019-01-06T22:57:01.375Z,13.67
2019-01-06T22:59:35.688Z,15.30
2019-01-06T23:02:10.802Z,13.00
2019-01-06T23:04:44.442Z,11.93
2019-01-06T23:07:23.647Z,12.60
2019-01-06T23:09:52.159Z,12.80
2019-01-06T23:12:22.494Z,13.55
2019-01-06T23:14:56.395Z,12.00
2019-01-06T23:17:26.071Z,11.43
2019-01-06T23:19:55.796Z,13.23
2019-01-06T23:22:30.179Z,12.60
2019-01-06T23:25:04.478Z,12.30
2019-01-06T23:27:38.942Z,10.20
2019-01-06T23:30:09.688Z,10.30
2019-01-06T23:32:39.277Z,9.47
2019-01-06T23:35:10.938Z,10.95
2019-01-06T23:37:45.185Z,10.90
2019-01-06T23:40:15.960Z,10.07
2019-01-06T23:42:44.899Z,9.90
2019-01-06T23:45:17.669Z,9.93
2019-01-06T23:47:49.420Z,9.77
2019-01-06T23:50:22.236Z,9.77
2019-01-06T23:52:52.589Z,9.52
2019-01-06T23:55:24.377Z,8.93
2019-01-06T23:57:55.120Z,9.93
